createdAt,value
2018-08-20T00:00:26.594Z,1008.17
2018-08-20T00:01:27.986Z,1008.17
2018-08-20T00:02:29.368Z,1008.18
2018-08-20T00:03:30.767Z,1008.14
2018-08-20T00:04:32.160Z,1008.14
2018-08-20T00:05:33.551Z,1008.16
2018-08-20T00:06:34.940Z,1008.21
2018-08-20T00:07:36.325Z,1008.17
2018-08-20T00:08:37.708Z,1008.11
2018-08-20T00:09:39.091Z,1008.13
2018-08-20T00:10:40.478Z,1008.11
2018-08-20T00:11:41.864Z,1008.14
2018-08-20T00:12:43.243Z,1008.12
2018-08-20T00:13:44.632Z,1008.14
2018-08-20T00:14:46.020Z,1008.16
2018-08-20T00:15:47.400Z,1008.13
2018-08-20T00:16:48.785Z,1008.12
2018-08-20T00:17:50.184Z,1008.15
2018-08-20T00:18:51.569Z,1008.13
2018-08-20T00:19:53.046Z,1008.19
2018-08-20T00:20:54.436Z,1008.20
2018-08-20T00:21:55.817Z,1008.17
2018-08-20T00:22:57.206Z,1008.17
2018-08-20T00:23:58.592Z,1008.19
2018-08-20T00:24:59.984Z,1008.20
2018-08-20T00:26:01.372Z,1008.17
2018-08-20T00:27:02.750Z,1008.19
2018-08-20T00:28:04.142Z,1008.19
2018-08-20T00:29:05.530Z,1008.19
2018-08-20T00:30:06.913Z,1008.19
2018-08-20T00:31:08.291Z,1008.22
2018-08-20T00:32:09.685Z,1008.23
2018-08-20T00:33:11.073Z,1008.21
2018-08-20T00:34:12.474Z,1008.23
2018-08-20T00:35:13.857Z,1008.21
2018-08-20T00:36:15.249Z,1008.25
2018-08-20T00:37:16.633Z,1008.23
2018-08-20T00:38:18.025Z,1008.23
2018-08-20T00:39:19.412Z,1008.24
2018-08-20T00:40:20.814Z,1008.28
2018-08-20T00:41:22.198Z,1008.25
2018-08-20T00:42:23.576Z,1008.25
2018-08-20T00:43:24.970Z,1008.26
2018-08-20T00:44:26.352Z,1008.24
2018-08-20T00:45:27.747Z,1008.29
2018-08-20T00:46:29.134Z,1008.28
2018-08-20T00:47:30.522Z,1008.25
2018-08-20T00:48:31.908Z,1008.29
2018-08-20T00:49:33.297Z,1008.25
2018-08-20T00:50:34.675Z,1008.28
2018-08-20T00:51:36.062Z,1008.26
2018-08-20T00:52:37.459Z,1008.24
2018-08-20T00:53:38.841Z,1008.23
2018-08-20T00:54:40.234Z,1008.23
2018-08-20T00:55:41.617Z,1008.25
2018-08-20T00:56:43.005Z,1008.20
2018-08-20T00:57:44.384Z,1008.23
2018-08-20T00:58:45.774Z,1008.23
2018-08-20T00:59:47.159Z,1008.27
2018-08-20T01:00:48.544Z,1008.26
2018-08-20T01:01:49.930Z,1008.28
2018-08-20T01:02:51.325Z,1008.27
2018-08-20T01:03:52.703Z,1008.28
2018-08-20T01:04:54.097Z,1008.27
2018-08-20T01:05:55.483Z,1008.28
2018-08-20T01:06:56.872Z,1008.26
2018-08-20T01:07:58.262Z,1008.29
2018-08-20T01:08:59.645Z,1008.29
2018-08-20T01:10:01.030Z,1008.33
2018-08-20T01:11:02.420Z,1008.33
2018-08-20T01:12:03.807Z,1008.37
2018-08-20T01:13:05.190Z,1008.34
2018-08-20T01:14:06.570Z,1008.33
2018-08-20T01:15:07.975Z,1008.33
2018-08-20T01:16:09.354Z,1008.30
2018-08-20T01:17:10.743Z,1008.31
2018-08-20T01:18:12.136Z,1008.32
2018-08-20T01:19:13.515Z,1008.34
2018-08-20T01:20:14.910Z,1008.34
2018-08-20T01:21:16.302Z,1008.31
2018-08-20T01:22:17.689Z,1008.35
2018-08-20T01:23:19.074Z,1008.31
2018-08-20T01:24:20.462Z,1008.32
2018-08-20T01:25:21.852Z,1008.31
2018-08-20T01:26:23.237Z,1008.32
2018-08-20T01:27:24.619Z,1008.30
2018-08-20T01:28:26.000Z,1008.26
2018-08-20T01:29:27.384Z,1008.32
2018-08-20T01:30:28.771Z,1008.30
2018-08-20T01:31:30.159Z,1008.25
2018-08-20T01:32:31.556Z,1008.27
2018-08-20T01:33:32.945Z,1008.31
2018-08-20T01:34:34.332Z,1008.31
2018-08-20T01:35:35.723Z,1008.32
2018-08-20T01:36:37.117Z,1008.26
2018-08-20T01:37:38.503Z,1008.25
2018-08-20T01:38:39.895Z,1008.27
2018-08-20T01:39:41.282Z,1008.26
2018-08-20T01:40:42.672Z,1008.25
2018-08-20T01:41:44.053Z,1008.25
2018-08-20T01:42:45.448Z,1008.29
2018-08-20T01:43:46.837Z,1008.26
2018-08-20T01:44:48.231Z,1008.27
2018-08-20T01:45:49.624Z,1008.25
2018-08-20T01:46:51.016Z,1008.23
2018-08-20T01:47:52.400Z,1008.23
2018-08-20T01:48:53.790Z,1008.21
2018-08-20T01:49:55.172Z,1008.18
2018-08-20T01:50:56.560Z,1008.20
2018-08-20T01:51:57.944Z,1008.22
2018-08-20T01:52:59.331Z,1008.21
2018-08-20T01:54:00.737Z,1008.21
2018-08-20T01:55:02.126Z,1008.18
2018-08-20T01:56:03.514Z,1008.17
2018-08-20T01:57:04.899Z,1008.22
2018-08-20T01:58:06.293Z,1008.18
2018-08-20T01:59:07.683Z,1008.17
2018-08-20T02:00:09.075Z,1008.15
2018-08-20T02:01:10.471Z,1008.12
2018-08-20T02:02:11.855Z,1008.16
2018-08-20T02:03:13.253Z,1008.12
2018-08-20T02:04:14.657Z,1008.10
2018-08-20T02:05:16.049Z,1008.10
2018-08-20T02:06:17.442Z,1008.10
2018-08-20T02:07:18.840Z,1008.07
2018-08-20T02:08:20.225Z,1008.10
2018-08-20T02:09:21.625Z,1008.08
2018-08-20T02:10:23.027Z,1008.09
2018-08-20T02:11:24.413Z,1008.02
2018-08-20T02:12:25.807Z,1008.05
2018-08-20T02:13:27.199Z,1008.06
2018-08-20T02:14:28.596Z,1008.04
2018-08-20T02:15:29.984Z,1008.03
2018-08-20T02:16:31.376Z,1008.02
2018-08-20T02:17:32.762Z,1008.02
2018-08-20T02:18:34.147Z,1008.05
2018-08-20T02:19:35.542Z,1008.05
2018-08-20T02:20:36.926Z,1008.04
2018-08-20T02:21:38.320Z,1008.03
2018-08-20T02:22:39.718Z,1008.07
2018-08-20T02:23:41.107Z,1008.02
2018-08-20T02:24:42.511Z,1008.05
2018-08-20T02:25:43.895Z,1008.02
2018-08-20T02:26:45.286Z,1008.02
2018-08-20T02:27:46.672Z,1007.99
2018-08-20T02:28:48.056Z,1008.01
2018-08-20T02:29:49.445Z,1007.98
2018-08-20T02:30:50.831Z,1008.00
2018-08-20T02:31:52.223Z,1007.99
2018-08-20T02:32:53.605Z,1008.02
2018-08-20T02:33:54.979Z,1007.99
2018-08-20T02:34:56.372Z,1007.97
2018-08-20T02:35:57.759Z,1007.98
2018-08-20T02:36:59.152Z,1007.96
2018-08-20T02:38:00.531Z,1007.98
2018-08-20T02:39:01.916Z,1007.97
2018-08-20T02:40:03.301Z,1007.95
2018-08-20T02:41:04.687Z,1007.95
2018-08-20T02:42:06.073Z,1007.91
2018-08-20T02:43:07.463Z,1007.97
2018-08-20T02:44:08.854Z,1007.93
2018-08-20T02:45:10.241Z,1007.91
2018-08-20T02:46:11.630Z,1007.90
2018-08-20T02:47:13.013Z,1007.88
2018-08-20T02:48:14.400Z,1007.85
2018-08-20T02:49:15.792Z,1007.84
2018-08-20T02:50:17.185Z,1007.82
2018-08-20T02:51:18.566Z,1007.81
2018-08-20T02:52:19.965Z,1007.83
2018-08-20T02:53:21.350Z,1007.82
2018-08-20T02:54:22.744Z,1007.78
2018-08-20T02:55:24.128Z,1007.77
2018-08-20T02:56:25.522Z,1007.77
2018-08-20T02:57:26.904Z,1007.75
2018-08-20T02:58:28.295Z,1007.76
2018-08-20T02:59:29.671Z,1007.77
2018-08-20T03:00:31.067Z,1007.74
2018-08-20T03:01:32.455Z,1007.69
2018-08-20T03:02:33.845Z,1007.71
2018-08-20T03:03:35.265Z,1007.66
2018-08-20T03:04:36.627Z,1007.70
2018-08-20T03:05:38.016Z,1007.72
2018-08-20T03:06:39.401Z,1007.71
2018-08-20T03:07:40.795Z,1007.70
2018-08-20T03:08:42.178Z,1007.70
2018-08-20T03:09:43.561Z,1007.69
2018-08-20T03:10:44.952Z,1007.62
2018-08-20T03:11:46.338Z,1007.64
2018-08-20T03:12:47.730Z,1007.67
2018-08-20T03:13:49.124Z,1007.67
2018-08-20T03:14:50.506Z,1007.64
2018-08-20T03:15:51.894Z,1007.64
2018-08-20T03:16:53.281Z,1007.65
2018-08-20T03:17:54.666Z,1007.60
2018-08-20T03:18:56.045Z,1007.61
2018-08-20T03:19:57.432Z,1007.57
2018-08-20T03:20:58.819Z,1007.56
2018-08-20T03:22:00.200Z,1007.57
2018-08-20T03:23:01.588Z,1007.57
2018-08-20T03:24:02.979Z,1007.57
2018-08-20T03:25:04.365Z,1007.53
2018-08-20T03:26:05.751Z,1007.49
2018-08-20T03:27:07.139Z,1007.55
2018-08-20T03:28:08.525Z,1007.56
2018-08-20T03:29:09.913Z,1007.54
2018-08-20T03:30:11.298Z,1007.56
2018-08-20T03:31:12.679Z,1007.62
2018-08-20T03:32:14.061Z,1007.57
2018-08-20T03:33:15.445Z,1007.54
2018-08-20T03:34:16.832Z,1007.56
2018-08-20T03:35:18.214Z,1007.49
2018-08-20T03:36:19.595Z,1007.49
2018-08-20T03:37:20.984Z,1007.48
2018-08-20T03:38:22.370Z,1007.52
2018-08-20T03:39:23.760Z,1007.47
2018-08-20T03:40:25.139Z,1007.49
2018-08-20T03:41:26.526Z,1007.47
2018-08-20T03:42:27.909Z,1007.47
2018-08-20T03:43:29.304Z,1007.45
2018-08-20T03:44:30.687Z,1007.41
2018-08-20T03:45:32.072Z,1007.38
2018-08-20T03:46:33.462Z,1007.47
2018-08-20T03:47:34.841Z,1007.45
2018-08-20T03:48:36.235Z,1007.40
2018-08-20T03:49:37.613Z,1007.40
2018-08-20T03:50:38.999Z,1007.41
2018-08-20T03:51:40.391Z,1007.42
2018-08-20T03:52:41.777Z,1007.40
2018-08-20T03:53:43.161Z,1007.43
2018-08-20T03:54:44.553Z,1007.40
2018-08-20T03:55:45.942Z,1007.40
2018-08-20T03:56:47.336Z,1007.41
2018-08-20T03:57:48.717Z,1007.43
2018-08-20T03:58:50.110Z,1007.40
2018-08-20T03:59:51.493Z,1007.38
2018-08-20T04:00:52.872Z,1007.37
2018-08-20T04:01:54.257Z,1007.40
2018-08-20T04:02:55.651Z,1007.41
2018-08-20T04:03:57.033Z,1007.38
2018-08-20T04:04:58.480Z,1007.42
2018-08-20T04:05:59.782Z,1007.43
2018-08-20T04:07:01.172Z,1007.38
2018-08-20T04:08:02.556Z,1007.42
2018-08-20T04:09:03.945Z,1007.41
2018-08-20T04:10:05.328Z,1007.40
2018-08-20T04:11:06.719Z,1007.44
2018-08-20T04:12:08.119Z,1007.43
2018-08-20T04:13:09.504Z,1007.42
2018-08-20T04:14:10.890Z,1007.45
2018-08-20T04:15:12.277Z,1007.39
2018-08-20T04:16:13.663Z,1007.42
2018-08-20T04:17:15.051Z,1007.44
2018-08-20T04:18:16.441Z,1007.41
2018-08-20T04:19:17.818Z,1007.42
2018-08-20T04:20:19.204Z,1007.40
2018-08-20T04:21:20.591Z,1007.41
2018-08-20T04:22:21.985Z,1007.40
2018-08-20T04:23:23.381Z,1007.41
2018-08-20T04:24:24.764Z,1007.44
2018-08-20T04:25:26.153Z,1007.48
2018-08-20T04:26:27.533Z,1007.45
2018-08-20T04:27:28.922Z,1007.47
2018-08-20T04:28:30.321Z,1007.48
2018-08-20T04:29:31.716Z,1007.48
2018-08-20T04:30:33.163Z,1007.51
2018-08-20T04:31:34.492Z,1007.52
2018-08-20T04:32:35.875Z,1007.53
2018-08-20T04:33:37.261Z,1007.56
2018-08-20T04:34:38.648Z,1007.52
2018-08-20T04:35:40.033Z,1007.56
2018-08-20T04:36:41.420Z,1007.58
2018-08-20T04:37:42.817Z,1007.56
2018-08-20T04:38:44.200Z,1007.53
2018-08-20T04:39:45.592Z,1007.57
2018-08-20T04:40:46.976Z,1007.56
2018-08-20T04:41:48.367Z,1007.57
2018-08-20T04:42:49.754Z,1007.58
2018-08-20T04:43:51.151Z,1007.56
2018-08-20T04:44:52.535Z,1007.58
2018-08-20T04:45:53.925Z,1007.56
2018-08-20T04:46:55.311Z,1007.57
2018-08-20T04:47:56.706Z,1007.60
2018-08-20T04:48:58.088Z,1007.58
2018-08-20T04:49:59.503Z,1007.60
2018-08-20T04:51:00.959Z,1007.62
2018-08-20T04:52:02.253Z,1007.62
2018-08-20T04:53:03.647Z,1007.61
2018-08-20T04:54:05.029Z,1007.64
2018-08-20T04:55:06.417Z,1007.66
2018-08-20T04:56:07.811Z,1007.73
2018-08-20T04:57:09.204Z,1007.63
2018-08-20T04:58:10.590Z,1007.67
2018-08-20T04:59:11.978Z,1007.66
2018-08-20T05:00:13.376Z,1007.62
2018-08-20T05:01:14.772Z,1007.67
2018-08-20T05:02:16.148Z,1007.72
2018-08-20T05:03:17.544Z,1007.71
2018-08-20T05:04:18.933Z,1007.73
2018-08-20T05:05:20.326Z,1007.71
2018-08-20T05:06:21.721Z,1007.72
2018-08-20T05:07:23.097Z,1007.72
2018-08-20T05:08:24.489Z,1007.68
2018-08-20T05:09:25.878Z,1007.67
2018-08-20T05:10:27.286Z,1007.65
2018-08-20T05:11:28.673Z,1007.66
2018-08-20T05:12:30.068Z,1007.70
2018-08-20T05:13:31.558Z,1007.69
2018-08-20T05:14:32.943Z,1007.67
2018-08-20T05:15:34.321Z,1007.67
2018-08-20T05:16:35.720Z,1007.67
2018-08-20T05:17:37.108Z,1007.68
2018-08-20T05:18:38.495Z,1007.67
2018-08-20T05:19:39.894Z,1007.68
2018-08-20T05:20:41.283Z,1007.68
2018-08-20T05:21:42.675Z,1007.66
2018-08-20T05:22:44.055Z,1007.68
2018-08-20T05:23:45.454Z,1007.70
2018-08-20T05:24:46.843Z,1007.71
2018-08-20T05:25:48.230Z,1007.69
2018-08-20T05:26:49.620Z,1007.70
2018-08-20T05:27:51.016Z,1007.69
2018-08-20T05:28:52.401Z,1007.67
2018-08-20T05:29:53.794Z,1007.73
2018-08-20T05:30:55.182Z,1007.75
2018-08-20T05:31:56.574Z,1007.73
2018-08-20T05:32:57.969Z,1007.72
2018-08-20T05:33:59.364Z,1007.72
2018-08-20T05:35:00.752Z,1007.72
2018-08-20T05:36:02.198Z,1007.72
2018-08-20T05:37:03.594Z,1007.73
2018-08-20T05:38:04.976Z,1007.75
2018-08-20T05:39:06.370Z,1007.71
2018-08-20T05:40:07.766Z,1007.72
2018-08-20T05:41:09.156Z,1007.70
2018-08-20T05:42:10.537Z,1007.72
2018-08-20T05:43:11.922Z,1007.73
2018-08-20T05:44:13.314Z,1007.77
2018-08-20T05:45:14.701Z,1007.68
2018-08-20T05:46:16.091Z,1007.70
2018-08-20T05:47:17.487Z,1007.69
2018-08-20T05:48:18.876Z,1007.68
2018-08-20T05:49:20.267Z,1007.70
2018-08-20T05:50:21.661Z,1007.67
2018-08-20T05:51:23.055Z,1007.66
2018-08-20T05:52:24.491Z,1007.69
2018-08-20T05:53:25.833Z,1007.68
2018-08-20T05:54:27.221Z,1007.71
2018-08-20T05:55:28.616Z,1007.71
2018-08-20T05:56:30.010Z,1007.74
2018-08-20T05:57:31.404Z,1007.71
2018-08-20T05:58:32.791Z,1007.68
2018-08-20T05:59:34.184Z,1007.67
2018-08-20T06:00:35.576Z,1007.73
2018-08-20T06:01:36.978Z,1007.71
2018-08-20T06:02:38.360Z,1007.71
2018-08-20T06:03:39.750Z,1007.71
2018-08-20T06:04:41.148Z,1007.74
2018-08-20T06:05:42.533Z,1007.76
2018-08-20T06:06:43.925Z,1007.73
2018-08-20T06:07:45.367Z,1007.73
2018-08-20T06:08:46.713Z,1007.74
2018-08-20T06:09:48.101Z,1007.79
2018-08-20T06:10:49.491Z,1007.78
2018-08-20T06:11:50.883Z,1007.80
2018-08-20T06:12:52.279Z,1007.81
2018-08-20T06:13:53.675Z,1007.83
2018-08-20T06:14:55.062Z,1007.79
2018-08-20T06:15:56.531Z,1007.81
2018-08-20T06:16:57.919Z,1007.80
2018-08-20T06:17:59.311Z,1007.79
2018-08-20T06:19:00.706Z,1007.82
2018-08-20T06:20:02.092Z,1007.81
2018-08-20T06:21:03.494Z,1007.79
2018-08-20T06:22:04.878Z,1007.81
2018-08-20T06:23:06.274Z,1007.80
2018-08-20T06:24:07.674Z,1007.79
2018-08-20T06:25:09.149Z,1007.81
2018-08-20T06:26:10.466Z,1007.84
2018-08-20T06:27:11.860Z,1007.87
2018-08-20T06:28:13.262Z,1007.80
2018-08-20T06:29:14.635Z,1007.81
2018-08-20T06:30:16.027Z,1007.88
2018-08-20T06:31:17.418Z,1007.93
2018-08-20T06:32:18.812Z,1007.99
2018-08-20T06:33:20.200Z,1007.97
2018-08-20T06:34:21.593Z,1007.99
2018-08-20T06:35:22.993Z,1008.04
2018-08-20T06:36:24.373Z,1008.05
2018-08-20T06:37:25.768Z,1008.03
2018-08-20T06:38:27.175Z,1008.02
2018-08-20T06:39:28.565Z,1008.03
2018-08-20T06:40:29.961Z,1008.06
2018-08-20T06:41:31.401Z,1008.05
2018-08-20T06:42:32.737Z,1008.13
2018-08-20T06:43:34.134Z,1008.08
2018-08-20T06:44:35.532Z,1008.03
2018-08-20T06:45:36.922Z,1008.07
2018-08-20T06:46:38.308Z,1008.08
2018-08-20T06:47:39.707Z,1008.08
2018-08-20T06:48:41.134Z,1008.07
2018-08-20T06:49:42.502Z,1008.08
2018-08-20T06:50:43.900Z,1008.27
2018-08-20T06:51:45.290Z,1008.19
2018-08-20T06:52:46.692Z,1008.24
2018-08-20T06:53:48.087Z,1008.26
2018-08-20T06:54:49.486Z,1008.19
2018-08-20T06:55:50.892Z,1008.14
2018-08-20T06:56:52.288Z,1008.20
2018-08-20T06:57:53.683Z,1008.21
2018-08-20T06:58:55.073Z,1008.15
2018-08-20T06:59:56.468Z,1008.22
2018-08-20T07:00:57.867Z,1008.18
2018-08-20T07:01:59.256Z,1008.29
2018-08-20T07:03:00.662Z,1008.28
2018-08-20T07:04:02.058Z,1008.27
2018-08-20T07:05:03.451Z,1008.36
2018-08-20T07:06:04.851Z,1008.29
2018-08-20T07:07:06.244Z,1008.26
2018-08-20T07:08:07.639Z,1008.26
2018-08-20T07:09:09.041Z,1008.27
2018-08-20T07:10:10.441Z,1008.26
2018-08-20T07:11:11.832Z,1008.27
2018-08-20T07:12:13.220Z,1008.24
2018-08-20T07:13:14.616Z,1008.27
2018-08-20T07:14:16.007Z,1008.29
2018-08-20T07:15:17.396Z,1008.27
2018-08-20T07:16:18.796Z,1008.28
2018-08-20T07:17:20.198Z,1008.31
2018-08-20T07:18:21.600Z,1008.30
2018-08-20T07:19:22.994Z,1008.29
2018-08-20T07:20:24.380Z,1008.28
2018-08-20T07:21:25.780Z,1008.35
2018-08-20T07:22:27.177Z,1008.34
2018-08-20T07:23:28.586Z,1008.35
2018-08-20T07:24:29.924Z,1008.31
2018-08-20T07:25:31.319Z,1008.27
2018-08-20T07:26:32.708Z,1008.36
2018-08-20T07:27:34.111Z,1008.35
2018-08-20T07:28:35.501Z,1008.40
2018-08-20T07:29:36.899Z,1008.35
2018-08-20T07:30:38.282Z,1008.38
2018-08-20T07:31:39.684Z,1008.45
2018-08-20T07:32:41.083Z,1008.43
2018-08-20T07:33:42.484Z,1008.46
2018-08-20T07:34:43.883Z,1008.47
2018-08-20T07:35:45.281Z,1008.48
2018-08-20T07:36:46.664Z,1008.42
2018-08-20T07:37:48.056Z,1008.52
2018-08-20T07:38:49.455Z,1008.47
2018-08-20T07:39:50.839Z,1008.53
2018-08-20T07:40:52.223Z,1008.51
2018-08-20T07:41:53.629Z,1008.53
2018-08-20T07:42:55.017Z,1008.53
2018-08-20T07:43:56.418Z,1008.49
2018-08-20T07:44:57.820Z,1008.48
2018-08-20T07:45:59.212Z,1008.51
2018-08-20T07:47:00.605Z,1008.52
2018-08-20T07:48:02.000Z,1008.49
2018-08-20T07:49:03.407Z,1008.48
2018-08-20T07:50:04.793Z,1008.46
2018-08-20T07:51:06.192Z,1008.49
2018-08-20T07:52:07.584Z,1008.50
2018-08-20T07:53:08.973Z,1008.48
2018-08-20T07:54:10.375Z,1008.51
2018-08-20T07:55:11.764Z,1008.50
2018-08-20T07:56:13.169Z,1008.51
2018-08-20T07:57:14.559Z,1008.50
2018-08-20T07:58:15.964Z,1008.55
2018-08-20T07:59:17.355Z,1008.51
2018-08-20T08:00:18.757Z,1008.56
2018-08-20T08:01:20.155Z,1008.51
2018-08-20T08:02:21.541Z,1008.54
2018-08-20T08:03:22.943Z,1008.53
2018-08-20T08:04:24.335Z,1008.56
2018-08-20T08:05:25.830Z,1008.60
2018-08-20T08:06:27.125Z,1008.61
2018-08-20T08:07:28.528Z,1008.58
2018-08-20T08:08:29.914Z,1008.61
2018-08-20T08:09:31.309Z,1008.60
2018-08-20T08:10:32.710Z,1008.62
2018-08-20T08:11:34.113Z,1008.62
2018-08-20T08:12:35.510Z,1008.63
2018-08-20T08:13:36.908Z,1008.64
2018-08-20T08:14:38.297Z,1008.61
2018-08-20T08:15:39.691Z,1008.62
2018-08-20T08:16:41.084Z,1008.62
2018-08-20T08:17:42.472Z,1008.68
2018-08-20T08:18:43.871Z,1008.67
2018-08-20T08:19:45.308Z,1008.71
2018-08-20T08:20:46.650Z,1008.71
2018-08-20T08:21:48.040Z,1008.69
2018-08-20T08:22:49.432Z,1008.71
2018-08-20T08:23:50.834Z,1008.72
2018-08-20T08:24:52.226Z,1008.76
2018-08-20T08:25:53.616Z,1008.73
2018-08-20T08:26:55.016Z,1008.68
2018-08-20T08:27:56.405Z,1008.73
2018-08-20T08:28:57.808Z,1008.73
2018-08-20T08:29:59.206Z,1008.73
2018-08-20T08:31:00.598Z,1008.70
2018-08-20T08:32:01.987Z,1008.72
2018-08-20T08:33:03.382Z,1008.78
2018-08-20T08:34:04.773Z,1008.77
2018-08-20T08:35:06.159Z,1008.70
2018-08-20T08:36:07.557Z,1008.73
2018-08-20T08:37:08.950Z,1008.76
2018-08-20T08:38:10.446Z,1008.74
2018-08-20T08:39:11.689Z,1008.74
2018-08-20T08:40:13.089Z,1008.70
2018-08-20T08:41:14.482Z,1008.72
2018-08-20T08:42:15.878Z,1008.78
2018-08-20T08:43:17.280Z,1008.73
2018-08-20T08:44:18.672Z,1008.75
2018-08-20T08:45:20.070Z,1008.77
2018-08-20T08:46:21.466Z,1008.71
2018-08-20T08:47:22.855Z,1008.71
2018-08-20T08:48:24.258Z,1008.70
2018-08-20T08:49:25.649Z,1008.73
2018-08-20T08:50:27.046Z,1008.71
2018-08-20T08:51:28.440Z,1008.69
2018-08-20T08:52:29.832Z,1008.68
2018-08-20T08:53:31.220Z,1008.62
2018-08-20T08:54:32.613Z,1008.66
2018-08-20T08:55:34.013Z,1008.66
2018-08-20T08:56:35.408Z,1008.69
2018-08-20T08:57:36.807Z,1008.74
2018-08-20T08:58:38.205Z,1008.73
2018-08-20T08:59:39.601Z,1008.75
2018-08-20T09:00:41.015Z,1008.71
2018-08-20T09:01:42.389Z,1008.76
2018-08-20T09:02:43.789Z,1008.77
2018-08-20T09:03:45.178Z,1008.76
2018-08-20T09:04:46.573Z,1008.75
2018-08-20T09:05:47.960Z,1008.75
2018-08-20T09:06:49.352Z,1008.77
2018-08-20T09:07:50.747Z,1008.78
2018-08-20T09:08:52.134Z,1008.76
2018-08-20T09:09:53.542Z,1008.75
2018-08-20T09:10:54.942Z,1008.74
2018-08-20T09:11:56.334Z,1008.76
2018-08-20T09:12:57.736Z,1008.74
2018-08-20T09:13:59.129Z,1008.70
2018-08-20T09:15:00.519Z,1008.69
2018-08-20T09:16:01.919Z,1008.68
2018-08-20T09:17:03.313Z,1008.71
2018-08-20T09:18:04.716Z,1008.69
2018-08-20T09:19:06.122Z,1008.70
2018-08-20T09:20:07.530Z,1008.73
2018-08-20T09:21:08.933Z,1008.67
2018-08-20T09:22:10.350Z,1008.68
2018-08-20T09:23:11.750Z,1008.73
2018-08-20T09:24:13.149Z,1008.69
2018-08-20T09:25:14.536Z,1008.65
2018-08-20T09:26:15.931Z,1008.65
2018-08-20T09:27:17.322Z,1008.66
2018-08-20T09:28:18.714Z,1008.68
2018-08-20T09:29:20.116Z,1008.68
2018-08-20T09:30:21.504Z,1008.70
2018-08-20T09:31:22.898Z,1008.69
2018-08-20T09:32:24.305Z,1008.70
2018-08-20T09:33:25.700Z,1008.75
2018-08-20T09:34:27.089Z,1008.73
2018-08-20T09:35:28.475Z,1008.76
2018-08-20T09:36:29.867Z,1008.77
2018-08-20T09:37:31.259Z,1008.82
2018-08-20T09:38:32.652Z,1008.84
2018-08-20T09:39:34.036Z,1008.75
2018-08-20T09:40:35.432Z,1008.74
2018-08-20T09:41:36.824Z,1008.79
2018-08-20T09:42:38.216Z,1008.79
2018-08-20T09:43:39.623Z,1008.82
2018-08-20T09:44:41.002Z,1008.81
2018-08-20T09:45:42.386Z,1008.76
2018-08-20T09:46:43.797Z,1008.81
2018-08-20T09:47:45.174Z,1008.81
2018-08-20T09:48:46.564Z,1008.81
2018-08-20T09:49:47.963Z,1008.81
2018-08-20T09:50:49.348Z,1008.83
2018-08-20T09:51:50.745Z,1008.80
2018-08-20T09:52:52.150Z,1008.84
2018-08-20T09:53:53.544Z,1008.85
2018-08-20T09:54:54.945Z,1008.85
2018-08-20T09:55:56.332Z,1008.84
2018-08-20T09:56:57.731Z,1008.84
2018-08-20T09:57:59.124Z,1008.84
2018-08-20T09:59:00.531Z,1008.87
2018-08-20T10:00:01.903Z,1008.83
2018-08-20T10:01:03.301Z,1008.92
2018-08-20T10:02:04.688Z,1008.95
2018-08-20T10:03:06.089Z,1008.94
2018-08-20T10:04:07.488Z,1008.99
2018-08-20T10:05:08.895Z,1009.00
2018-08-20T10:06:10.292Z,1009.02
2018-08-20T10:07:11.687Z,1009.03
2018-08-20T10:08:13.086Z,1009.06
2018-08-20T10:09:15.066Z,1009.10
2018-08-20T10:10:16.484Z,1009.10
2018-08-20T10:11:17.933Z,1009.07
2018-08-20T10:12:19.335Z,1009.10
2018-08-20T10:13:20.750Z,1009.12
2018-08-20T10:14:22.146Z,1009.08
2018-08-20T10:15:23.547Z,1009.08
2018-08-20T10:16:24.965Z,1009.11
2018-08-20T10:17:26.348Z,1009.10
2018-08-20T10:18:27.784Z,1009.09
2018-08-20T10:19:29.150Z,1009.10
2018-08-20T10:20:30.551Z,1009.09
2018-08-20T10:21:31.971Z,1009.05
2018-08-20T10:22:33.342Z,1009.02
2018-08-20T10:23:34.736Z,1009.09
2018-08-20T10:24:36.161Z,1009.06
2018-08-20T10:25:37.485Z,1009.07
2018-08-20T10:26:38.872Z,1009.04
2018-08-20T10:27:40.270Z,1009.06
2018-08-20T10:28:41.662Z,1009.02
2018-08-20T10:29:43.053Z,1009.01
2018-08-20T10:30:44.446Z,1009.04
2018-08-20T10:31:45.841Z,1009.00
2018-08-20T10:32:47.224Z,1009.01
2018-08-20T10:33:48.625Z,1008.98
2018-08-20T10:34:50.001Z,1008.94
2018-08-20T10:35:51.402Z,1008.95
2018-08-20T10:36:53.009Z,1008.95
2018-08-20T10:37:54.472Z,1008.95
2018-08-20T10:38:55.799Z,1009.03
2018-08-20T10:39:57.192Z,1009.05
2018-08-20T10:40:58.581Z,1009.12
2018-08-20T10:41:59.971Z,1009.13
2018-08-20T10:43:01.368Z,1009.16
2018-08-20T10:44:02.761Z,1009.11
2018-08-20T10:45:04.203Z,1009.15
2018-08-20T10:46:05.545Z,1009.17
2018-08-20T10:47:06.945Z,1009.17
2018-08-20T10:48:08.338Z,1009.17
2018-08-20T10:49:09.727Z,1009.19
2018-08-20T10:50:11.147Z,1009.23
2018-08-20T10:51:12.529Z,1009.22
2018-08-20T10:52:13.927Z,1009.20
2018-08-20T10:53:15.325Z,1009.21
2018-08-20T10:54:16.711Z,1009.24
2018-08-20T10:55:18.114Z,1009.20
2018-08-20T10:56:19.553Z,1009.18
2018-08-20T10:57:20.899Z,1009.20
2018-08-20T10:58:22.304Z,1009.22
2018-08-20T10:59:23.705Z,1009.23
2018-08-20T11:00:25.107Z,1009.20
2018-08-20T11:01:26.495Z,1009.26
2018-08-20T11:02:27.907Z,1009.22
2018-08-20T11:03:29.306Z,1009.24
2018-08-20T11:04:30.688Z,1009.21
2018-08-20T11:05:32.091Z,1009.28
2018-08-20T11:06:33.485Z,1009.28
2018-08-20T11:07:34.891Z,1009.28
2018-08-20T11:08:36.290Z,1009.28
2018-08-20T11:09:37.684Z,1009.28
2018-08-20T11:10:39.096Z,1009.25
2018-08-20T11:11:40.470Z,1009.27
2018-08-20T11:12:41.873Z,1009.22
2018-08-20T11:13:43.268Z,1009.22
2018-08-20T11:14:44.668Z,1009.21
2018-08-20T11:15:46.058Z,1009.18
2018-08-20T11:16:47.455Z,1009.17
2018-08-20T11:17:48.848Z,1009.21
2018-08-20T11:18:50.311Z,1009.15
2018-08-20T11:19:51.608Z,1009.21
2018-08-20T11:20:53.011Z,1009.24
2018-08-20T11:21:54.404Z,1009.20
2018-08-20T11:22:55.797Z,1009.18
2018-08-20T11:23:57.182Z,1009.20
2018-08-20T11:24:58.585Z,1009.26
2018-08-20T11:25:59.974Z,1009.28
2018-08-20T11:27:01.418Z,1009.29
2018-08-20T11:28:02.764Z,1009.22
2018-08-20T11:29:04.159Z,1009.24
2018-08-20T11:30:05.624Z,1009.28
2018-08-20T11:31:06.965Z,1009.27
2018-08-20T11:32:08.361Z,1009.23
2018-08-20T11:33:09.755Z,1009.29
2018-08-20T11:34:11.151Z,1009.24
2018-08-20T11:35:12.552Z,1009.25
2018-08-20T11:36:13.945Z,1009.31
2018-08-20T11:37:15.344Z,1009.30
2018-08-20T11:38:16.736Z,1009.29
2018-08-20T11:39:18.135Z,1009.30
2018-08-20T11:40:19.529Z,1009.29
2018-08-20T11:41:20.930Z,1009.32
2018-08-20T11:42:22.329Z,1009.28
2018-08-20T11:43:23.714Z,1009.29
2018-08-20T11:44:25.119Z,1009.29
2018-08-20T11:45:26.514Z,1009.30
2018-08-20T11:46:27.923Z,1009.34
2018-08-20T11:47:29.316Z,1009.30
2018-08-20T11:48:30.716Z,1009.30
2018-08-20T11:49:32.107Z,1009.26
2018-08-20T11:50:33.502Z,1009.27
2018-08-20T11:51:34.900Z,1009.29
2018-08-20T11:52:36.300Z,1009.26
2018-08-20T11:53:37.691Z,1009.28
2018-08-20T11:54:39.092Z,1009.26
2018-08-20T11:55:40.496Z,1009.28
2018-08-20T11:56:41.896Z,1009.22
2018-08-20T11:57:43.286Z,1009.23
2018-08-20T11:58:44.684Z,1009.26
2018-08-20T11:59:46.076Z,1009.26
2018-08-20T12:00:47.480Z,1009.23
2018-08-20T12:01:48.893Z,1009.28
2018-08-20T12:02:50.281Z,1009.19
2018-08-20T12:03:51.690Z,1009.20
2018-08-20T12:04:53.059Z,1009.24
2018-08-20T12:05:54.467Z,1009.26
2018-08-20T12:06:55.888Z,1009.26
2018-08-20T12:07:57.273Z,1009.20
2018-08-20T12:08:58.687Z,1009.21
2018-08-20T12:10:00.068Z,1009.22
2018-08-20T12:11:01.470Z,1009.19
2018-08-20T12:12:02.867Z,1009.16
2018-08-20T12:13:04.253Z,1009.16
2018-08-20T12:14:05.669Z,1009.18
2018-08-20T12:15:07.054Z,1009.12
2018-08-20T12:16:08.454Z,1009.09
2018-08-20T12:17:09.897Z,1009.10
2018-08-20T12:18:11.262Z,1009.08
2018-08-20T12:19:12.656Z,1009.13
2018-08-20T12:20:14.047Z,1009.15
2018-08-20T12:21:15.453Z,1009.12
2018-08-20T12:22:16.874Z,1009.14